sensor_id;sensor_type;location;lat;lon;timestamp;P1;durP1;ratioP1;P2;durP2;ratioP2
6561;SDS011;3314;50.890;4.722;2022-12-04T00:01:15;44.2;;;14.9;;
6561;SDS011;3314;50.890;4.722;2022-12-04T00:03:15;46.5;;;17.5;;
6561;SDS011;3314;50.890;4.722;2022-12-04T00:35:20;40.5;;;15.4;;
6561;SDS011;3314;50.890;4.722;2022-12-04T00:36:58;40.7;;;15.1;;
6561;SDS011;3314;50.890;4.722;2022-12-04T00:38:58;37.7;;;12.7;;
6561;SDS011;3314;50.890;4.722;2022-12-04T00:41:00;36.2;;;13.9;;
6561;SDS011;3314;50.890;4.722;2022-12-04T00:43:00;42.2;;;15.6;;
6561;SDS011;3314;50.890;4.722;2022-12-04T00:44:59;37.2;;;13.3;;
6561;SDS011;3314;50.890;4.722;2022-12-04T00:46:59;40.2;;;15.1;;
6561;SDS011;3314;50.890;4.722;2022-12-04T00:49:01;41.2;;;14.7;;
6561;SDS011;3314;50.890;4.722;2022-12-04T00:51:01;40.7;;;15.6;;
6561;SDS011;3314;50.890;4.722;2022-12-04T00:53:01;34.2;;;12.6;;
6561;SDS011;3314;50.890;4.722;2022-12-04T00:55:01;37.7;;;15.2;;
6561;SDS011;3314;50.890;4.722;2022-12-04T00:57:01;41.5;;;14.8;;
6561;SDS011;3314;50.890;4.722;2022-12-04T00:59:01;37.6;;;14.5;;
6561;SDS011;3314;50.890;4.722;2022-12-04T01:01:01;38.8;;;13.8;;
6561;SDS011;3314;50.890;4.722;2022-12-04T01:03:01;44.6;;;14.9;;
6561;SDS011;3314;50.890;4.722;2022-12-04T01:05:01;37.9;;;15.1;;
6561;SDS011;3314;50.890;4.722;2022-12-04T01:06:50;46.7;;;15.3;;
6561;SDS011;3314;50.890;4.722;2022-12-04T01:08:51;39.1;;;15.4;;
6561;SDS011;3314;50.890;4.722;2022-12-04T01:10:51;40.3;;;14.8;;
6561;SDS011;3314;50.890;4.722;2022-12-04T01:12:51;41.9;;;14.7;;
6561;SDS011;3314;50.890;4.722;2022-12-04T01:14:50;40.4;;;14.7;;
6561;SDS011;3314;50.890;4.722;2022-12-04T01:16:50;45.6;;;15.0;;
6561;SDS011;3314;50.890;4.722;2022-12-04T01:18:50;39.1;;;14.6;;
6561;SDS011;3314;50.890;4.722;2022-12-04T01:20:50;35.6;;;13.0;;
6561;SDS011;3314;50.890;4.722;2022-12-04T01:22:50;45.2;;;14.8;;
6561;SDS011;3314;50.890;4.722;2022-12-04T01:24:53;42.5;;;14.3;;
6561;SDS011;3314;50.890;4.722;2022-12-04T01:26:53;39.8;;;13.9;;
6561;SDS011;3314;50.890;4.722;2022-12-04T01:28:53;37.3;;;13.3;;
6561;SDS011;3314;50.890;4.722;2022-12-04T01:30:57;35.0;;;12.6;;
6561;SDS011;3314;50.890;4.722;2022-12-04T01:32:45;41.4;;;15.1;;
6561;SDS011;3314;50.890;4.722;2022-12-04T01:34:45;37.8;;;14.5;;
6561;SDS011;3314;50.890;4.722;2022-12-04T01:36:44;40.5;;;14.8;;
6561;SDS011;3314;50.890;4.722;2022-12-04T01:38:44;39.9;;;15.4;;
6561;SDS011;3314;50.890;4.722;2022-12-04T01:40:44;37.5;;;13.6;;
6561;SDS011;3314;50.890;4.722;2022-12-04T01:42:44;39.1;;;14.7;;
6561;SDS011;3314;50.890;4.722;2022-12-04T01:45:19;44.1;;;15.5;;
6561;SDS011;3314;50.890;4.722;2022-12-04T01:46:52;38.8;;;14.7;;
6561;SDS011;3314;50.890;4.722;2022-12-04T01:48:41;39.1;;;13.1;;
6561;SDS011;3314;50.890;4.722;2022-12-04T01:50:42;40.7;;;15.0;;
6561;SDS011;3314;50.890;4.722;2022-12-04T01:52:42;36.9;;;13.8;;
6561;SDS011;3314;50.890;4.722;2022-12-04T01:54:43;37.4;;;15.6;;
6561;SDS011;3314;50.890;4.722;2022-12-04T01:56:44;39.3;;;15.1;;
6561;SDS011;3314;50.890;4.722;2022-12-04T01:58:45;38.4;;;13.7;;
6561;SDS011;3314;50.890;4.722;2022-12-04T02:00:46;42.6;;;16.4;;
6561;SDS011;3314;50.890;4.722;2022-12-04T02:02:46;41.8;;;15.1;;
6561;SDS011;3314;50.890;4.722;2022-12-04T02:04:46;41.3;;;16.0;;
6561;SDS011;3314;50.890;4.722;2022-12-04T02:06:36;42.4;;;15.2;;
6561;SDS011;3314;50.890;4.722;2022-12-04T02:08:36;40.3;;;14.2;;
6561;SDS011;3314;50.890;4.722;2022-12-04T02:10:38;37.7;;;15.1;;
6561;SDS011;3314;50.890;4.722;2022-12-04T02:12:42;37.8;;;15.0;;
6561;SDS011;3314;50.890;4.722;2022-12-04T02:14:45;43.9;;;16.0;;
6561;SDS011;3314;50.890;4.722;2022-12-04T02:16:36;41.0;;;16.3;;
6561;SDS011;3314;50.890;4.722;2022-12-04T02:18:39;41.9;;;14.5;;
6561;SDS011;3314;50.890;4.722;2022-12-04T02:20:43;34.3;;;14.0;;
6561;SDS011;3314;50.890;4.722;2022-12-04T02:22:37;39.7;;;15.0;;
6561;SDS011;3314;50.890;4.722;2022-12-04T02:24:35;49.3;;;15.6;;
6561;SDS011;3314;50.890;4.722;2022-12-04T02:26:38;41.0;;;15.2;;
6561;SDS011;3314;50.890;4.722;2022-12-04T02:28:39;37.5;;;14.3;;
6561;SDS011;3314;50.890;4.722;2022-12-04T02:30:30;35.8;;;13.4;;
6561;SDS011;3314;50.890;4.722;2022-12-04T02:32:32;42.1;;;14.7;;
6561;SDS011;3314;50.890;4.722;2022-12-04T02:34:34;38.6;;;15.0;;
6561;SDS011;3314;50.890;4.722;2022-12-04T02:36:39;41.9;;;15.6;;
6561;SDS011;3314;50.890;4.722;2022-12-04T02:38:30;39.2;;;16.4;;
6561;SDS011;3314;50.890;4.722;2022-12-04T02:40:32;41.7;;;14.9;;
6561;SDS011;3314;50.890;4.722;2022-12-04T02:42:36;36.5;;;14.0;;
6561;SDS011;3314;50.890;4.722;2022-12-04T02:44:28;38.6;;;15.7;;
6561;SDS011;3314;50.890;4.722;2022-12-04T02:46:29;45.7;;;15.0;;
6561;SDS011;3314;50.890;4.722;2022-12-04T02:48:30;41.7;;;16.1;;
6561;SDS011;3314;50.890;4.722;2022-12-04T02:50:32;38.6;;;14.4;;
6561;SDS011;3314;50.890;4.722;2022-12-04T02:52:34;46.4;;;15.8;;
6561;SDS011;3314;50.890;4.722;2022-12-04T02:54:26;41.3;;;15.5;;
6561;SDS011;3314;50.890;4.722;2022-12-04T02:56:29;48.0;;;16.7;;
6561;SDS011;3314;50.890;4.722;2022-12-04T02:58:30;40.4;;;15.5;;
6561;SDS011;3314;50.890;4.722;2022-12-04T03:00:32;38.3;;;15.0;;
6561;SDS011;3314;50.890;4.722;2022-12-04T03:02:24;42.1;;;15.7;;
6561;SDS011;3314;50.890;4.722;2022-12-04T03:04:26;43.1;;;15.3;;
6561;SDS011;3314;50.890;4.722;2022-12-04T03:06:28;42.5;;;14.7;;
6561;SDS011;3314;50.890;4.722;2022-12-04T03:08:29;39.8;;;16.0;;
6561;SDS011;3314;50.890;4.722;2022-12-04T03:10:23;42.4;;;14.9;;
6561;SDS011;3314;50.890;4.722;2022-12-04T03:12:25;40.6;;;15.2;;
6561;SDS011;3314;50.890;4.722;2022-12-04T03:14:26;41.3;;;14.7;;
6561;SDS011;3314;50.890;4.722;2022-12-04T03:16:28;44.3;;;15.3;;
6561;SDS011;3314;50.890;4.722;2022-12-04T03:18:19;37.6;;;13.8;;
6561;SDS011;3314;50.890;4.722;2022-12-04T03:20:21;43.7;;;16.0;;
6561;SDS011;3314;50.890;4.722;2022-12-04T03:22:23;41.1;;;15.0;;
6561;SDS011;3314;50.890;4.722;2022-12-04T03:24:24;40.0;;;15.0;;
6561;SDS011;3314;50.890;4.722;2022-12-04T03:26:26;46.2;;;14.9;;
6561;SDS011;3314;50.890;4.722;2022-12-04T03:28:19;37.8;;;15.8;;
6561;SDS011;3314;50.890;4.722;2022-12-04T03:30:21;43.6;;;15.6;;
6561;SDS011;3314;50.890;4.722;2022-12-04T03:32:22;44.2;;;16.6;;
6561;SDS011;3314;50.890;4.722;2022-12-04T03:34:25;48.8;;;16.1;;
6561;SDS011;3314;50.890;4.722;2022-12-04T03:36:15;41.0;;;15.0;;
6561;SDS011;3314;50.890;4.722;2022-12-04T03:38:17;41.5;;;15.0;;
6561;SDS011;3314;50.890;4.722;2022-12-04T03:40:20;44.3;;;16.2;;
6561;SDS011;3314;50.890;4.722;2022-12-04T03:42:22;46.2;;;16.3;;
6561;SDS011;3314;50.890;4.722;2022-12-04T03:44:23;40.5;;;16.4;;
6561;SDS011;3314;50.890;4.722;2022-12-04T03:46:13;44.8;;;16.7;;
6561;SDS011;3314;50.890;4.722;2022-12-04T03:48:15;48.9;;;16.5;;
6561;SDS011;3314;50.890;4.722;2022-12-04T03:50:16;39.5;;;15.1;;
6561;SDS011;3314;50.890;4.722;2022-12-04T03:52:19;46.9;;;16.9;;
6561;SDS011;3314;50.890;4.722;2022-12-04T03:54:20;37.6;;;15.2;;
6561;SDS011;3314;50.890;4.722;2022-12-04T03:56:10;40.9;;;14.8;;
6561;SDS011;3314;50.890;4.722;2022-12-04T03:58:13;43.1;;;15.9;;
6561;SDS011;3314;50.890;4.722;2022-12-04T04:00:15;44.1;;;16.3;;
6561;SDS011;3314;50.890;4.722;2022-12-04T04:02:17;43.9;;;15.6;;
6561;SDS011;3314;50.890;4.722;2022-12-04T04:04:09;41.7;;;15.7;;
6561;SDS011;3314;50.890;4.722;2022-12-04T04:06:10;42.3;;;16.9;;
6561;SDS011;3314;50.890;4.722;2022-12-04T04:08:28;42.9;;;15.2;;
6561;SDS011;3314;50.890;4.722;2022-12-04T04:10:13;38.3;;;15.0;;
6561;SDS011;3314;50.890;4.722;2022-12-04T04:12:14;44.2;;;17.4;;
6561;SDS011;3314;50.890;4.722;2022-12-04T04:16:22;48.4;;;17.3;;
6561;SDS011;3314;50.890;4.722;2022-12-04T04:18:47;43.6;;;15.9;;
6561;SDS011;3314;50.890;4.722;2022-12-04T04:21:06;45.3;;;15.6;;
6561;SDS011;3314;50.890;4.722;2022-12-04T04:23:30;48.4;;;17.2;;
6561;SDS011;3314;50.890;4.722;2022-12-04T04:24:20;44.5;;;16.7;;
6561;SDS011;3314;50.890;4.722;2022-12-04T04:24:37;39.8;;;16.6;;
6561;SDS011;3314;50.890;4.722;2022-12-04T04:26:03;47.8;;;17.7;;
6561;SDS011;3314;50.890;4.722;2022-12-04T04:28:03;39.5;;;14.3;;
6561;SDS011;3314;50.890;4.722;2022-12-04T04:30:03;43.2;;;15.9;;
6561;SDS011;3314;50.890;4.722;2022-12-04T04:32:05;45.0;;;16.2;;
6561;SDS011;3314;50.890;4.722;2022-12-04T04:34:07;44.3;;;16.5;;
6561;SDS011;3314;50.890;4.722;2022-12-04T04:36:11;49.3;;;17.1;;
6561;SDS011;3314;50.890;4.722;2022-12-04T04:38:03;44.7;;;16.0;;
6561;SDS011;3314;50.890;4.722;2022-12-04T04:40:07;46.4;;;17.4;;
6561;SDS011;3314;50.890;4.722;2022-12-04T04:42:09;47.0;;;15.9;;
6561;SDS011;3314;50.890;4.722;2022-12-04T04:44:01;43.7;;;15.7;;
6561;SDS011;3314;50.890;4.722;2022-12-04T04:46:04;43.0;;;14.7;;
6561;SDS011;3314;50.890;4.722;2022-12-04T04:48:05;47.1;;;16.1;;
6561;SDS011;3314;50.890;4.722;2022-12-04T04:50:07;43.8;;;15.1;;
6561;SDS011;3314;50.890;4.722;2022-12-04T04:51:56;42.7;;;15.2;;
6561;SDS011;3314;50.890;4.722;2022-12-04T04:53:58;48.8;;;16.3;;
6561;SDS011;3314;50.890;4.722;2022-12-04T04:55:59;46.2;;;16.3;;
6561;SDS011;3314;50.890;4.722;2022-12-04T04:58:05;43.1;;;15.0;;
6561;SDS011;3314;50.890;4.722;2022-12-04T05:00:06;44.4;;;16.5;;
6561;SDS011;3314;50.890;4.722;2022-12-04T05:01:54;47.0;;;16.9;;
6561;SDS011;3314;50.890;4.722;2022-12-04T05:03:55;45.3;;;17.1;;
6561;SDS011;3314;50.890;4.722;2022-12-04T05:05:54;43.8;;;17.1;;
6561;SDS011;3314;50.890;4.722;2022-12-04T05:07:54;43.5;;;15.7;;
6561;SDS011;3314;50.890;4.722;2022-12-04T05:09:54;45.0;;;17.4;;
6561;SDS011;3314;50.890;4.722;2022-12-04T05:11:53;44.5;;;16.0;;
6561;SDS011;3314;50.890;4.722;2022-12-04T05:13:53;42.8;;;16.0;;
6561;SDS011;3314;50.890;4.722;2022-12-04T05:15:56;43.8;;;17.1;;
6561;SDS011;3314;50.890;4.722;2022-12-04T05:17:56;47.4;;;17.6;;
6561;SDS011;3314;50.890;4.722;2022-12-04T05:19:56;42.6;;;15.7;;
6561;SDS011;3314;50.890;4.722;2022-12-04T05:21:56;42.3;;;17.1;;
6561;SDS011;3314;50.890;4.722;2022-12-04T05:23:56;42.5;;;16.5;;
6561;SDS011;3314;50.890;4.722;2022-12-04T05:25:58;44.2;;;15.7;;
6561;SDS011;3314;50.890;4.722;2022-12-04T05:27:57;47.0;;;16.2;;
6561;SDS011;3314;50.890;4.722;2022-12-04T05:29:57;42.6;;;16.9;;
6561;SDS011;3314;50.890;4.722;2022-12-04T05:31:47;48.6;;;19.1;;
6561;SDS011;3314;50.890;4.722;2022-12-04T05:33:46;40.9;;;16.5;;
6561;SDS011;3314;50.890;4.722;2022-12-04T05:36:09;38.6;;;16.3;;
6561;SDS011;3314;50.890;4.722;2022-12-04T05:37:46;45.7;;;17.2;;
6561;SDS011;3314;50.890;4.722;2022-12-04T05:39:45;46.7;;;16.3;;
6561;SDS011;3314;50.890;4.722;2022-12-04T05:41:45;48.3;;;16.6;;
6561;SDS011;3314;50.890;4.722;2022-12-04T05:43:45;43.1;;;16.8;;
6561;SDS011;3314;50.890;4.722;2022-12-04T05:45:45;43.3;;;16.6;;
6561;SDS011;3314;50.890;4.722;2022-12-04T05:47:44;51.3;;;16.8;;
6561;SDS011;3314;50.890;4.722;2022-12-04T05:49:44;44.4;;;16.7;;
6561;SDS011;3314;50.890;4.722;2022-12-04T05:51:43;45.2;;;15.5;;
6561;SDS011;3314;50.890;4.722;2022-12-04T05:53:43;42.0;;;15.9;;
6561;SDS011;3314;50.890;4.722;2022-12-04T05:55:43;40.9;;;16.1;;
6561;SDS011;3314;50.890;4.722;2022-12-04T05:57:42;43.8;;;16.4;;
6561;SDS011;3314;50.890;4.722;2022-12-04T05:59:42;46.3;;;16.0;;
6561;SDS011;3314;50.890;4.722;2022-12-04T06:01:42;43.6;;;17.1;;
6561;SDS011;3314;50.890;4.722;2022-12-04T06:03:42;41.6;;;15.4;;
6561;SDS011;3314;50.890;4.722;2022-12-04T06:05:42;48.6;;;16.6;;
6561;SDS011;3314;50.890;4.722;2022-12-04T06:07:41;49.7;;;16.6;;
6561;SDS011;3314;50.890;4.722;2022-12-04T06:09:41;42.9;;;17.4;;
6561;SDS011;3314;50.890;4.722;2022-12-04T06:11:41;42.4;;;15.1;;
6561;SDS011;3314;50.890;4.722;2022-12-04T06:13:41;47.5;;;16.5;;
6561;SDS011;3314;50.890;4.722;2022-12-04T06:15:41;42.8;;;16.7;;
6561;SDS011;3314;50.890;4.722;2022-12-04T06:17:41;47.5;;;17.5;;
6561;SDS011;3314;50.890;4.722;2022-12-04T06:19:40;45.0;;;15.4;;
6561;SDS011;3314;50.890;4.722;2022-12-04T06:21:40;42.5;;;15.6;;
6561;SDS011;3314;50.890;4.722;2022-12-04T06:23:40;46.7;;;17.4;;
6561;SDS011;3314;50.890;4.722;2022-12-04T06:25:40;45.8;;;16.2;;
6561;SDS011;3314;50.890;4.722;2022-12-04T06:27:39;49.6;;;16.2;;
6561;SDS011;3314;50.890;4.722;2022-12-04T06:29:39;43.0;;;15.6;;
6561;SDS011;3314;50.890;4.722;2022-12-04T06:31:39;51.1;;;19.1;;
6561;SDS011;3314;50.890;4.722;2022-12-04T06:33:38;44.5;;;16.7;;
6561;SDS011;3314;50.890;4.722;2022-12-04T06:35:38;42.7;;;15.8;;
6561;SDS011;3314;50.890;4.722;2022-12-04T06:37:38;53.6;;;19.4;;
6561;SDS011;3314;50.890;4.722;2022-12-04T06:39:38;50.5;;;17.6;;
6561;SDS011;3314;50.890;4.722;2022-12-04T07:15:37;52.3;;;19.3;;
6561;SDS011;3314;50.890;4.722;2022-12-04T07:17:25;51.7;;;18.4;;
6561;SDS011;3314;50.890;4.722;2022-12-04T07:19:25;48.2;;;18.7;;
6561;SDS011;3314;50.890;4.722;2022-12-04T07:21:25;49.3;;;16.8;;
6561;SDS011;3314;50.890;4.722;2022-12-04T07:23:25;43.1;;;18.1;;
6561;SDS011;3314;50.890;4.722;2022-12-04T07:25:25;51.1;;;17.4;;
6561;SDS011;3314;50.890;4.722;2022-12-04T07:27:24;46.6;;;17.0;;
6561;SDS011;3314;50.890;4.722;2022-12-04T07:29:24;46.1;;;17.8;;
6561;SDS011;3314;50.890;4.722;2022-12-04T07:31:24;51.3;;;18.5;;
6561;SDS011;3314;50.890;4.722;2022-12-04T07:33:24;46.5;;;18.0;;
6561;SDS011;3314;50.890;4.722;2022-12-04T07:35:24;49.8;;;18.8;;
6561;SDS011;3314;50.890;4.722;2022-12-04T07:37:23;43.0;;;17.3;;
6561;SDS011;3314;50.890;4.722;2022-12-04T07:39:23;53.2;;;19.3;;
6561;SDS011;3314;50.890;4.722;2022-12-04T07:41:23;44.0;;;17.2;;
6561;SDS011;3314;50.890;4.722;2022-12-04T07:43:23;48.9;;;18.5;;
6561;SDS011;3314;50.890;4.722;2022-12-04T07:45:22;43.5;;;16.1;;
6561;SDS011;3314;50.890;4.722;2022-12-04T07:47:22;46.7;;;17.4;;
6561;SDS011;3314;50.890;4.722;2022-12-04T07:49:22;47.0;;;17.3;;
6561;SDS011;3314;50.890;4.722;2022-12-04T07:51:22;47.6;;;17.9;;
6561;SDS011;3314;50.890;4.722;2022-12-04T07:53:22;46.3;;;16.1;;
6561;SDS011;3314;50.890;4.722;2022-12-04T07:55:22;46.7;;;15.8;;
6561;SDS011;3314;50.890;4.722;2022-12-04T07:57:22;48.2;;;16.4;;
6561;SDS011;3314;50.890;4.722;2022-12-04T07:59:21;47.7;;;16.9;;
6561;SDS011;3314;50.890;4.722;2022-12-04T08:01:21;44.8;;;17.1;;
6561;SDS011;3314;50.890;4.722;2022-12-04T08:03:11;49.1;;;17.0;;
6561;SDS011;3314;50.890;4.722;2022-12-04T08:05:10;46.1;;;16.9;;
6561;SDS011;3314;50.890;4.722;2022-12-04T08:07:10;50.4;;;17.0;;
6561;SDS011;3314;50.890;4.722;2022-12-04T08:09:10;47.1;;;17.1;;
6561;SDS011;3314;50.890;4.722;2022-12-04T08:11:11;45.0;;;17.0;;
6561;SDS011;3314;50.890;4.722;2022-12-04T08:13:11;44.9;;;16.5;;
6561;SDS011;3314;50.890;4.722;2022-12-04T08:15:11;43.2;;;17.0;;
6561;SDS011;3314;50.890;4.722;2022-12-04T08:17:11;44.8;;;17.7;;
6561;SDS011;3314;50.890;4.722;2022-12-04T08:19:10;43.9;;;16.7;;
6561;SDS011;3314;50.890;4.722;2022-12-04T08:21:11;43.6;;;17.2;;
6561;SDS011;3314;50.890;4.722;2022-12-04T08:23:11;42.5;;;15.7;;
6561;SDS011;3314;50.890;4.722;2022-12-04T08:25:11;48.2;;;18.4;;
6561;SDS011;3314;50.890;4.722;2022-12-04T08:27:10;47.9;;;16.1;;
6561;SDS011;3314;50.890;4.722;2022-12-04T08:29:10;46.8;;;17.3;;
6561;SDS011;3314;50.890;4.722;2022-12-04T08:31:10;46.4;;;17.2;;
6561;SDS011;3314;50.890;4.722;2022-12-04T08:33:10;43.1;;;16.1;;
6561;SDS011;3314;50.890;4.722;2022-12-04T08:35:10;40.3;;;15.3;;
6561;SDS011;3314;50.890;4.722;2022-12-04T08:37:10;48.9;;;16.7;;
6561;SDS011;3314;50.890;4.722;2022-12-04T08:39:09;47.4;;;17.2;;
6561;SDS011;3314;50.890;4.722;2022-12-04T08:41:10;52.6;;;16.3;;
6561;SDS011;3314;50.890;4.722;2022-12-04T08:43:10;45.2;;;17.7;;
6561;SDS011;3314;50.890;4.722;2022-12-04T08:45:10;47.1;;;17.4;;
6561;SDS011;3314;50.890;4.722;2022-12-04T08:47:09;46.7;;;17.6;;
6561;SDS011;3314;50.890;4.722;2022-12-04T08:49:09;46.0;;;18.6;;
6561;SDS011;3314;50.890;4.722;2022-12-04T08:51:11;45.0;;;16.5;;
6561;SDS011;3314;50.890;4.722;2022-12-04T08:52:59;45.2;;;17.6;;
6561;SDS011;3314;50.890;4.722;2022-12-04T08:54:58;39.9;;;16.3;;
6561;SDS011;3314;50.890;4.722;2022-12-04T08:56:58;45.5;;;16.6;;
6561;SDS011;3314;50.890;4.722;2022-12-04T08:58:58;44.2;;;17.2;;
6561;SDS011;3314;50.890;4.722;2022-12-04T09:01:02;46.5;;;16.9;;
6561;SDS011;3314;50.890;4.722;2022-12-04T09:03:02;40.1;;;16.2;;
6561;SDS011;3314;50.890;4.722;2022-12-04T09:05:02;52.4;;;19.1;;
6561;SDS011;3314;50.890;4.722;2022-12-04T09:07:01;42.4;;;15.8;;
6561;SDS011;3314;50.890;4.722;2022-12-04T09:09:01;42.9;;;16.4;;
6561;SDS011;3314;50.890;4.722;2022-12-04T09:11:02;45.0;;;15.9;;
6561;SDS011;3314;50.890;4.722;2022-12-04T09:13:01;44.7;;;16.0;;
6561;SDS011;3314;50.890;4.722;2022-12-04T09:15:02;42.9;;;15.3;;
6561;SDS011;3314;50.890;4.722;2022-12-04T09:17:01;43.4;;;16.5;;
6561;SDS011;3314;50.890;4.722;2022-12-04T09:19:01;41.3;;;15.6;;
6561;SDS011;3314;50.890;4.722;2022-12-04T09:21:02;37.2;;;14.1;;
6561;SDS011;3314;50.890;4.722;2022-12-04T09:22:52;38.6;;;16.2;;
6561;SDS011;3314;50.890;4.722;2022-12-04T09:24:51;40.5;;;15.0;;
6561;SDS011;3314;50.890;4.722;2022-12-04T09:26:51;39.4;;;14.7;;
6561;SDS011;3314;50.890;4.722;2022-12-04T09:28:51;36.8;;;14.7;;
6561;SDS011;3314;50.890;4.722;2022-12-04T09:30:58;41.7;;;15.9;;
6561;SDS011;3314;50.890;4.722;2022-12-04T09:32:58;42.1;;;15.4;;
6561;SDS011;3314;50.890;4.722;2022-12-04T09:34:58;42.1;;;14.0;;
6561;SDS011;3314;50.890;4.722;2022-12-04T09:36:57;37.6;;;14.9;;
6561;SDS011;3314;50.890;4.722;2022-12-04T09:38:59;33.4;;;14.3;;
6561;SDS011;3314;50.890;4.722;2022-12-04T09:40:49;33.5;;;12.9;;
6561;SDS011;3314;50.890;4.722;2022-12-04T09:42:52;36.0;;;15.1;;
6561;SDS011;3314;50.890;4.722;2022-12-04T09:44:56;35.6;;;14.3;;
6561;SDS011;3314;50.890;4.722;2022-12-04T09:46:49;33.8;;;14.3;;
6561;SDS011;3314;50.890;4.722;2022-12-04T09:48:49;37.1;;;13.3;;
6561;SDS011;3314;50.890;4.722;2022-12-04T09:50:49;40.3;;;15.1;;
6561;SDS011;3314;50.890;4.722;2022-12-04T09:52:51;36.9;;;14.2;;
6561;SDS011;3314;50.890;4.722;2022-12-04T09:54:51;41.4;;;14.9;;
6561;SDS011;3314;50.890;4.722;2022-12-04T09:56:51;40.4;;;15.1;;
6561;SDS011;3314;50.890;4.722;2022-12-04T09:58:53;37.9;;;15.0;;
6561;SDS011;3314;50.890;4.722;2022-12-04T10:00:43;38.2;;;14.5;;
6561;SDS011;3314;50.890;4.722;2022-12-04T10:02:45;39.5;;;13.6;;
6561;SDS011;3314;50.890;4.722;2022-12-04T10:04:47;36.0;;;14.1;;
6561;SDS011;3314;50.890;4.722;2022-12-04T10:06:51;35.3;;;13.6;;
6561;SDS011;3314;50.890;4.722;2022-12-04T10:08:41;32.2;;;13.0;;
6561;SDS011;3314;50.890;4.722;2022-12-04T10:10:43;38.2;;;14.4;;
6561;SDS011;3314;50.890;4.722;2022-12-04T10:12:46;34.8;;;13.0;;
6561;SDS011;3314;50.890;4.722;2022-12-04T10:14:53;38.5;;;13.9;;
6561;SDS011;3314;50.890;4.722;2022-12-04T10:16:46;37.4;;;12.9;;
6561;SDS011;3314;50.890;4.722;2022-12-04T10:18:42;36.0;;;13.4;;
6561;SDS011;3314;50.890;4.722;2022-12-04T10:20:47;33.7;;;11.7;;
6561;SDS011;3314;50.890;4.722;2022-12-04T10:22:38;38.4;;;14.0;;
6561;SDS011;3314;50.890;4.722;2022-12-04T10:24:42;31.7;;;12.4;;
6561;SDS011;3314;50.890;4.722;2022-12-04T10:26:43;27.7;;;12.2;;
6561;SDS011;3314;50.890;4.722;2022-12-04T10:28:45;33.3;;;14.3;;
6561;SDS011;3314;50.890;4.722;2022-12-04T10:30:35;36.8;;;12.9;;
6561;SDS011;3314;50.890;4.722;2022-12-04T10:32:36;33.0;;;12.5;;
6561;SDS011;3314;50.890;4.722;2022-12-04T10:34:35;31.8;;;12.3;;
6561;SDS011;3314;50.890;4.722;2022-12-04T10:36:35;29.8;;;11.1;;
6561;SDS011;3314;50.890;4.722;2022-12-04T10:38:36;30.5;;;11.9;;
6561;SDS011;3314;50.890;4.722;2022-12-04T10:40:39;32.3;;;11.5;;
6561;SDS011;3314;50.890;4.722;2022-12-04T10:42:41;29.6;;;11.9;;
6561;SDS011;3314;50.890;4.722;2022-12-04T10:44:33;27.9;;;10.8;;
6561;SDS011;3314;50.890;4.722;2022-12-04T10:46:33;31.0;;;12.4;;
6561;SDS011;3314;50.890;4.722;2022-12-04T10:48:34;26.6;;;10.1;;
6561;SDS011;3314;50.890;4.722;2022-12-04T10:50:34;28.8;;;12.1;;
6561;SDS011;3314;50.890;4.722;2022-12-04T10:52:34;33.5;;;11.7;;
6561;SDS011;3314;50.890;4.722;2022-12-04T10:54:34;31.7;;;11.0;;
6561;SDS011;3314;50.890;4.722;2022-12-04T10:56:34;28.2;;;11.3;;
6561;SDS011;3314;50.890;4.722;2022-12-04T10:58:33;26.1;;;11.3;;
6561;SDS011;3314;50.890;4.722;2022-12-04T11:00:34;27.3;;;10.9;;
6561;SDS011;3314;50.890;4.722;2022-12-04T11:02:34;30.5;;;11.0;;
6561;SDS011;3314;50.890;4.722;2022-12-04T11:04:36;29.9;;;9.6;;
6561;SDS011;3314;50.890;4.722;2022-12-04T11:06:36;26.2;;;9.6;;
6561;SDS011;3314;50.890;4.722;2022-12-04T11:08:37;27.2;;;9.8;;
6561;SDS011;3314;50.890;4.722;2022-12-04T11:10:29;28.9;;;9.9;;
6561;SDS011;3314;50.890;4.722;2022-12-04T11:12:29;26.5;;;9.9;;
6561;SDS011;3314;50.890;4.722;2022-12-04T11:14:30;26.6;;;10.0;;
6561;SDS011;3314;50.890;4.722;2022-12-04T11:16:32;24.1;;;9.5;;
6561;SDS011;3314;50.890;4.722;2022-12-04T11:18:34;25.6;;;9.6;;
6561;SDS011;3314;50.890;4.722;2022-12-04T11:20:24;28.2;;;9.8;;
6561;SDS011;3314;50.890;4.722;2022-12-04T11:22:24;28.2;;;10.7;;
6561;SDS011;3314;50.890;4.722;2022-12-04T11:24:25;27.8;;;11.6;;
6561;SDS011;3314;50.890;4.722;2022-12-04T11:26:29;30.8;;;10.7;;
6561;SDS011;3314;50.890;4.722;2022-12-04T11:28:30;25.5;;;9.8;;
6561;SDS011;3314;50.890;4.722;2022-12-04T11:30:32;25.3;;;10.4;;
6561;SDS011;3314;50.890;4.722;2022-12-04T11:32:24;29.9;;;12.2;;
6561;SDS011;3314;50.890;4.722;2022-12-04T11:34:26;26.8;;;10.9;;
6561;SDS011;3314;50.890;4.722;2022-12-04T11:36:27;31.7;;;10.1;;
6561;SDS011;3314;50.890;4.722;2022-12-04T11:38:28;26.2;;;10.1;;
6561;SDS011;3314;50.890;4.722;2022-12-04T11:40:19;26.1;;;9.6;;
6561;SDS011;3314;50.890;4.722;2022-12-04T11:42:22;26.3;;;9.6;;
6561;SDS011;3314;50.890;4.722;2022-12-04T11:44:23;24.1;;;10.2;;
6561;SDS011;3314;50.890;4.722;2022-12-04T11:46:25;25.8;;;10.2;;
6561;SDS011;3314;50.890;4.722;2022-12-04T11:48:25;27.9;;;10.0;;
6561;SDS011;3314;50.890;4.722;2022-12-04T11:50:28;24.2;;;9.7;;
6561;SDS011;3314;50.890;4.722;2022-12-04T11:52:19;26.9;;;9.7;;
6561;SDS011;3314;50.890;4.722;2022-12-04T11:54:24;26.9;;;9.7;;
6561;SDS011;3314;50.890;4.722;2022-12-04T11:56:17;26.4;;;10.2;;
6561;SDS011;3314;50.890;4.722;2022-12-04T11:58:26;27.1;;;10.1;;
6561;SDS011;3314;50.890;4.722;2022-12-04T12:02:24;24.3;;;9.7;;
6561;SDS011;3314;50.890;4.722;2022-12-04T12:04:36;28.0;;;10.1;;
6561;SDS011;3314;50.890;4.722;2022-12-04T12:06:19;28.7;;;10.7;;
6561;SDS011;3314;50.890;4.722;2022-12-04T12:08:15;25.4;;;10.4;;
6561;SDS011;3314;50.890;4.722;2022-12-04T12:10:18;26.9;;;10.5;;
6561;SDS011;3314;50.890;4.722;2022-12-04T12:12:21;24.2;;;8.5;;
6561;SDS011;3314;50.890;4.722;2022-12-04T12:14:16;31.4;;;10.2;;
6561;SDS011;3314;50.890;4.722;2022-12-04T12:16:19;26.7;;;8.8;;
6561;SDS011;3314;50.890;4.722;2022-12-04T12:18:14;27.4;;;9.9;;
6561;SDS011;3314;50.890;4.722;2022-12-04T12:20:16;22.0;;;9.0;;
6561;SDS011;3314;50.890;4.722;2022-12-04T12:22:26;21.5;;;9.1;;
6561;SDS011;3314;50.890;4.722;2022-12-04T12:24:12;21.6;;;9.2;;
6561;SDS011;3314;50.890;4.722;2022-12-04T12:26:13;26.0;;;9.5;;
6561;SDS011;3314;50.890;4.722;2022-12-04T12:28:17;23.3;;;8.7;;
6561;SDS011;3314;50.890;4.722;2022-12-04T12:30:08;22.6;;;8.6;;
6561;SDS011;3314;50.890;4.722;2022-12-04T12:32:14;22.3;;;8.4;;
6561;SDS011;3314;50.890;4.722;2022-12-04T12:34:17;23.2;;;8.2;;
6561;SDS011;3314;50.890;4.722;2022-12-04T12:36:08;16.8;;;7.2;;
6561;SDS011;3314;50.890;4.722;2022-12-04T12:38:09;19.1;;;7.6;;
6561;SDS011;3314;50.890;4.722;2022-12-04T12:40:11;27.7;;;8.9;;
6561;SDS011;3314;50.890;4.722;2022-12-04T12:42:14;23.8;;;8.2;;
6561;SDS011;3314;50.890;4.722;2022-12-04T12:44:06;18.8;;;6.8;;
6561;SDS011;3314;50.890;4.722;2022-12-04T12:46:10;21.0;;;7.7;;
6561;SDS011;3314;50.890;4.722;2022-12-04T12:48:15;20.0;;;7.2;;
6561;SDS011;3314;50.890;4.722;2022-12-04T12:50:09;22.7;;;8.1;;
6561;SDS011;3314;50.890;4.722;2022-12-04T12:52:13;19.3;;;7.3;;
6561;SDS011;3314;50.890;4.722;2022-12-04T12:54:08;22.7;;;7.8;;
6561;SDS011;3314;50.890;4.722;2022-12-04T12:56:08;18.3;;;7.6;;
6561;SDS011;3314;50.890;4.722;2022-12-04T12:58:11;23.7;;;7.9;;
6561;SDS011;3314;50.890;4.722;2022-12-04T13:00:03;24.4;;;8.4;;
6561;SDS011;3314;50.890;4.722;2022-12-04T13:02:04;18.3;;;7.5;;
6561;SDS011;3314;50.890;4.722;2022-12-04T13:04:07;22.9;;;8.2;;
6561;SDS011;3314;50.890;4.722;2022-12-04T13:06:09;19.0;;;7.9;;
6561;SDS011;3314;50.890;4.722;2022-12-04T13:08:00;24.3;;;8.2;;
6561;SDS011;3314;50.890;4.722;2022-12-04T13:10:02;22.2;;;7.7;;
6561;SDS011;3314;50.890;4.722;2022-12-04T13:12:05;23.3;;;8.3;;
6561;SDS011;3314;50.890;4.722;2022-12-04T13:14:10;20.3;;;8.2;;
6561;SDS011;3314;50.890;4.722;2022-12-04T13:16:02;19.8;;;8.3;;
6561;SDS011;3314;50.890;4.722;2022-12-04T13:18:02;21.8;;;8.1;;
6561;SDS011;3314;50.890;4.722;2022-12-04T13:20:03;18.8;;;7.2;;
6561;SDS011;3314;50.890;4.722;2022-12-04T13:22:09;19.5;;;7.9;;
6561;SDS011;3314;50.890;4.722;2022-12-04T13:24:08;23.1;;;8.6;;
6561;SDS011;3314;50.890;4.722;2022-12-04T13:26:03;19.4;;;7.9;;
6561;SDS011;3314;50.890;4.722;2022-12-04T13:27:56;20.3;;;8.2;;
6561;SDS011;3314;50.890;4.722;2022-12-04T13:30:02;24.5;;;7.6;;